createdAt,value
2023-05-11T00:01:28.328Z,12.73
2023-05-11T00:03:57.662Z,13.87
2023-05-11T00:06:25.820Z,15.63
2023-05-11T00:08:53.714Z,15.37
2023-05-11T00:11:21.608Z,14.83
2023-05-11T00:13:49.477Z,13.50
2023-05-11T00:16:17.417Z,14.57
2023-05-11T00:18:45.377Z,14.73
2023-05-11T00:21:14.572Z,13.83
2023-05-11T00:23:42.464Z,15.33
2023-05-11T00:26:10.360Z,16.27
2023-05-11T00:28:38.810Z,14.97
2023-05-11T00:31:06.761Z,16.03
2023-05-11T00:33:34.698Z,14.67
2023-05-11T00:36:03.839Z,15.70
2023-05-11T00:38:33.081Z,16.60
2023-05-11T00:41:00.925Z,16.37
2023-05-11T00:43:28.790Z,16.87
2023-05-11T00:45:56.688Z,17.63
2023-05-11T00:48:24.695Z,18.00
2023-05-11T00:50:52.706Z,17.60
2023-05-11T00:53:20.828Z,18.00
2023-05-11T00:55:49.987Z,18.97
2023-05-11T00:58:18.068Z,18.40
2023-05-11T01:00:47.806Z,18.43
2023-05-11T01:03:16.179Z,18.50
2023-05-11T01:05:49.239Z,18.60
2023-05-11T01:08:23.060Z,19.07
2023-05-11T01:10:59.907Z,21.47
2023-05-11T01:13:32.523Z,23.60
2023-05-11T01:16:03.797Z,19.87
2023-05-11T01:18:38.064Z,19.33
2023-05-11T01:21:14.119Z,22.63
2023-05-11T01:23:53.125Z,21.53
2023-05-11T01:26:51.616Z,19.33
2023-05-11T01:29:47.675Z,21.70
2023-05-11T01:32:21.623Z,20.30
2023-05-11T01:34:54.282Z,18.97
2023-05-11T01:37:24.036Z,19.87
2023-05-11T01:39:54.709Z,19.93
2023-05-11T01:42:26.028Z,16.40
2023-05-11T01:44:56.105Z,15.23
2023-05-11T01:47:27.957Z,16.43
2023-05-11T01:49:56.905Z,17.00
2023-05-11T01:52:27.034Z,14.20
2023-05-11T01:54:57.087Z,14.53
2023-05-11T01:57:26.535Z,14.60
2023-05-11T01:59:56.953Z,14.23
2023-05-11T02:02:29.717Z,15.10
2023-05-11T02:05:00.146Z,15.97
2023-05-11T02:07:30.543Z,17.43
2023-05-11T02:09:59.296Z,17.43
2023-05-11T02:12:29.582Z,17.73
2023-05-11T02:14:59.287Z,18.03
2023-05-11T02:17:30.021Z,18.87
2023-05-11T02:19:59.736Z,20.77
2023-05-11T02:22:29.490Z,19.03
2023-05-11T02:24:57.716Z,19.27
2023-05-11T02:27:25.984Z,20.97
2023-05-11T02:29:54.908Z,20.77
2023-05-11T02:32:25.509Z,19.67
2023-05-11T02:35:01.706Z,23.07
2023-05-11T02:37:31.658Z,20.83
2023-05-11T02:40:03.772Z,19.43
2023-05-11T02:42:37.805Z,21.57
2023-05-11T02:45:08.911Z,21.70
2023-05-11T02:47:40.630Z,24.00
2023-05-11T02:50:11.104Z,22.07
2023-05-11T02:52:45.680Z,21.53
2023-05-11T02:55:16.316Z,22.93
2023-05-11T02:57:44.630Z,21.17
2023-05-11T03:00:13.776Z,22.60
2023-05-11T03:02:42.273Z,22.13
2023-05-11T03:05:12.168Z,22.63
2023-05-11T03:07:40.223Z,23.90
2023-05-11T03:10:09.756Z,21.37
2023-05-11T03:12:40.959Z,22.70
2023-05-11T03:15:11.960Z,22.93
2023-05-11T03:17:42.751Z,25.63
2023-05-11T03:20:17.588Z,27.57
2023-05-11T03:22:47.416Z,25.00
2023-05-11T03:25:16.643Z,27.73
2023-05-11T03:27:46.142Z,28.90
2023-05-11T03:30:16.628Z,27.67
2023-05-11T03:32:48.852Z,27.23
2023-05-11T03:35:18.482Z,26.53
2023-05-11T03:37:47.883Z,27.70
2023-05-11T03:40:18.065Z,31.63
2023-05-11T03:42:54.686Z,27.80
2023-05-11T03:45:24.010Z,29.67
2023-05-11T03:47:53.114Z,27.57
2023-05-11T03:50:22.851Z,28.17
2023-05-11T03:52:51.792Z,29.73
2023-05-11T03:55:20.105Z,30.40
2023-05-11T03:57:49.420Z,29.50
2023-05-11T04:00:18.164Z,28.83
2023-05-11T04:02:46.766Z,24.43
2023-05-11T04:05:15.154Z,30.00
2023-05-11T04:07:47.403Z,25.20
2023-05-11T04:10:15.295Z,27.87
2023-05-11T04:12:43.203Z,24.47
2023-05-11T04:15:11.818Z,27.20
2023-05-11T04:17:39.790Z,24.73
2023-05-11T04:20:08.910Z,29.57
2023-05-11T04:22:36.929Z,27.33
2023-05-11T04:25:07.275Z,26.17
2023-05-11T04:27:35.145Z,27.97
2023-05-11T04:30:06.080Z,25.00
2023-05-11T04:32:34.062Z,26.53
2023-05-11T04:35:02.331Z,26.70
2023-05-11T04:37:34.531Z,25.00
2023-05-11T04:40:04.956Z,25.60
2023-05-11T04:42:40.316Z,25.57
2023-05-11T04:45:12.701Z,26.30
2023-05-11T04:47:40.887Z,24.43
2023-05-11T04:50:10.962Z,24.83
2023-05-11T04:52:38.926Z,24.07
2023-05-11T04:55:07.716Z,24.30
2023-05-11T04:57:35.659Z,25.20
2023-05-11T05:00:08.392Z,25.43
2023-05-11T05:02:36.352Z,25.07
2023-05-11T05:05:04.473Z,26.10
2023-05-11T05:07:32.434Z,25.33
2023-05-11T05:10:00.751Z,23.20
2023-05-11T05:12:28.634Z,22.50
2023-05-11T05:14:56.579Z,24.83
2023-05-11T05:17:25.856Z,20.60
2023-05-11T05:19:53.717Z,23.47
2023-05-11T05:22:21.597Z,22.33
2023-05-11T05:24:49.479Z,23.00
2023-05-11T05:27:17.414Z,20.40
2023-05-11T05:29:45.996Z,20.27
2023-05-11T05:32:14.641Z,21.03
2023-05-11T05:34:46.865Z,20.60
2023-05-11T05:37:15.446Z,21.37
2023-05-11T05:39:43.393Z,20.20
2023-05-11T05:42:11.308Z,20.90
2023-05-11T05:44:39.696Z,22.27
2023-05-11T05:47:07.968Z,21.40
2023-05-11T05:49:37.635Z,21.00
2023-05-11T05:52:08.623Z,21.00
2023-05-11T05:54:36.929Z,17.17
2023-05-11T05:57:05.204Z,18.20
2023-05-11T05:59:33.111Z,17.33
2023-05-11T06:02:01.967Z,17.97
2023-05-11T06:04:30.924Z,19.47
2023-05-11T06:06:59.852Z,18.80
2023-05-11T06:09:29.064Z,19.03
2023-05-11T06:11:57.229Z,18.00
2023-05-11T06:14:25.888Z,19.37
2023-05-11T06:16:54.014Z,19.20
2023-05-11T06:19:22.857Z,20.07
2023-05-11T06:21:51.448Z,19.83
2023-05-11T06:24:19.638Z,19.23
2023-05-11T06:26:49.538Z,18.50
2023-05-11T06:29:19.839Z,18.03
2023-05-11T06:31:49.246Z,21.27
2023-05-11T06:34:17.265Z,21.50
2023-05-11T06:36:45.204Z,22.93
2023-05-11T06:39:13.166Z,24.97
2023-05-11T06:41:41.174Z,22.10
2023-05-11T06:44:10.428Z,23.40
2023-05-11T06:46:39.479Z,24.57
2023-05-11T06:49:08.610Z,28.77
2023-05-11T06:51:37.110Z,26.67
2023-05-11T06:54:05.134Z,28.33
2023-05-11T06:56:34.033Z,30.50
2023-05-11T06:59:01.886Z,29.93
2023-05-11T07:01:32.302Z,35.10
2023-05-11T07:04:00.426Z,32.30
2023-05-11T07:06:29.704Z,32.23
2023-05-11T07:08:57.669Z,34.97
2023-05-11T07:11:25.967Z,33.80
2023-05-11T07:13:53.837Z,36.13
2023-05-11T07:16:23.069Z,36.93
2023-05-11T07:18:52.435Z,37.83
2023-05-11T07:21:22.003Z,43.03
2023-05-11T07:23:49.931Z,43.23
2023-05-11T07:26:17.826Z,43.30
2023-05-11T07:28:45.794Z,44.67
2023-05-11T07:31:13.749Z,45.17
2023-05-11T07:33:41.719Z,46.50
2023-05-11T07:36:11.333Z,45.17
2023-05-11T07:38:39.603Z,45.43
2023-05-11T07:41:09.433Z,45.33
2023-05-11T07:43:38.890Z,44.87
2023-05-11T07:46:07.198Z,44.13
2023-05-11T07:48:35.236Z,45.03
2023-05-11T07:51:03.194Z,42.83
2023-05-11T07:53:33.066Z,44.20
2023-05-11T07:56:01.326Z,45.90
2023-05-11T07:58:29.169Z,46.43
2023-05-11T08:00:57.676Z,44.03
2023-05-11T08:03:25.743Z,38.63
2023-05-11T08:05:53.776Z,35.13
2023-05-11T08:08:21.847Z,34.20
2023-05-11T08:10:51.125Z,35.73
2023-05-11T08:13:20.130Z,31.40
2023-05-11T08:15:48.189Z,25.80
2023-05-11T08:18:16.185Z,23.93
2023-05-11T08:20:44.077Z,21.37
2023-05-11T08:23:17.122Z,19.93
2023-05-11T08:25:52.833Z,19.43
2023-05-11T08:28:21.141Z,17.93
2023-05-11T08:30:55.194Z,17.77
2023-05-11T08:33:36.619Z,16.37
2023-05-11T08:36:07.818Z,17.00
2023-05-11T08:38:36.283Z,17.40
2023-05-11T08:41:07.636Z,15.97
2023-05-11T08:43:36.781Z,14.87
2023-05-11T08:46:07.307Z,15.90
2023-05-11T08:48:35.683Z,15.37
2023-05-11T08:51:04.519Z,13.93
2023-05-11T08:53:32.663Z,13.77
2023-05-11T08:56:01.610Z,14.53
2023-05-11T08:58:33.015Z,13.57
2023-05-11T09:01:01.102Z,15.03
2023-05-11T09:03:30.517Z,14.33
2023-05-11T09:05:59.633Z,12.90
2023-05-11T09:08:31.073Z,12.50
2023-05-11T09:11:00.187Z,12.03
2023-05-11T09:13:28.345Z,12.07
2023-05-11T09:15:57.620Z,12.07
2023-05-11T09:18:25.830Z,12.07
2023-05-11T09:20:53.714Z,12.07
2023-05-11T09:23:27.103Z,12.23
2023-05-11T09:25:55.666Z,12.47
2023-05-11T09:28:25.705Z,12.53
2023-05-11T09:30:54.209Z,12.20
2023-05-11T09:33:26.887Z,11.70
2023-05-11T09:35:54.937Z,12.20
2023-05-11T09:38:26.476Z,11.63
2023-05-11T09:40:55.587Z,11.60
2023-05-11T09:43:25.867Z,11.93
2023-05-11T09:45:55.543Z,11.67
2023-05-11T09:48:32.800Z,12.03
2023-05-11T09:51:03.417Z,11.27
2023-05-11T09:53:40.824Z,11.83
2023-05-11T09:56:09.319Z,11.43
2023-05-11T09:58:47.801Z,11.80
2023-05-11T10:01:17.075Z,11.43
2023-05-11T10:03:56.382Z,10.50
2023-05-11T10:06:45.318Z,11.37
2023-05-11T10:09:14.111Z,11.63
2023-05-11T10:11:44.927Z,11.50
2023-05-11T10:14:14.261Z,11.57
2023-05-11T10:16:43.741Z,11.73
2023-05-11T10:19:16.042Z,12.57
2023-05-11T10:21:44.322Z,12.07
2023-05-11T10:24:13.823Z,13.00
2023-05-11T10:26:42.414Z,13.90
2023-05-11T10:29:11.197Z,13.37
2023-05-11T10:31:39.287Z,12.27
2023-05-11T10:34:08.309Z,11.07
2023-05-11T10:36:37.498Z,11.77
2023-05-11T10:39:05.568Z,13.17
2023-05-11T10:41:46.140Z,14.13
2023-05-11T10:44:46.624Z,12.90
2023-05-11T10:47:43.775Z,15.50
2023-05-11T10:50:25.025Z,15.47
2023-05-11T10:53:10.922Z,16.10
2023-05-11T10:55:56.905Z,17.00
2023-05-11T10:58:42.984Z,16.70
2023-05-11T11:01:37.638Z,15.73
2023-05-11T11:04:07.343Z,14.73
2023-05-11T11:06:36.124Z,16.00
2023-05-11T11:09:07.943Z,17.20
2023-05-11T11:11:39.123Z,16.93
2023-05-11T11:14:09.403Z,15.87
2023-05-11T11:16:37.853Z,15.40
2023-05-11T11:25:55.499Z,16.50
2023-05-11T11:31:29.840Z,16.40
2023-05-11T11:34:00.979Z,17.73
2023-05-11T11:37:08.621Z,17.57
2023-05-11T11:40:08.940Z,17.83
2023-05-11T11:42:44.252Z,20.13
2023-05-11T11:45:32.933Z,22.70
2023-05-11T11:48:29.900Z,24.80
2023-05-11T11:51:33.632Z,20.97
2023-05-11T11:54:01.651Z,20.30
2023-05-11T11:56:43.532Z,19.77
2023-05-11T11:59:15.079Z,19.33
2023-05-11T12:01:45.506Z,17.33
2023-05-11T12:04:46.097Z,18.47
2023-05-11T12:07:16.220Z,19.57
2023-05-11T12:10:04.111Z,21.47
2023-05-11T12:12:32.224Z,24.37
2023-05-11T12:15:02.282Z,22.33
2023-05-11T12:17:32.574Z,27.00
2023-05-11T12:20:14.216Z,27.87
2023-05-11T12:22:42.439Z,26.07
2023-05-11T12:25:11.667Z,29.80
2023-05-11T12:27:51.780Z,27.40
2023-05-11T12:30:25.476Z,26.53
2023-05-11T12:32:57.371Z,24.57
2023-05-11T12:35:26.959Z,19.80
2023-05-11T12:37:55.878Z,23.70
2023-05-11T12:40:24.198Z,22.93
2023-05-11T12:42:52.949Z,24.57
2023-05-11T12:45:22.607Z,23.23
2023-05-11T12:47:53.368Z,22.10
2023-05-11T12:50:22.360Z,23.33
2023-05-11T12:52:50.387Z,25.03
2023-05-11T12:55:28.626Z,21.90
2023-05-11T12:58:08.686Z,22.63
2023-05-11T13:00:36.880Z,21.87
2023-05-11T13:03:06.411Z,22.73
2023-05-11T13:05:34.414Z,19.93
2023-05-11T13:08:05.503Z,19.93
2023-05-11T13:10:33.486Z,21.53
2023-05-11T13:13:01.305Z,20.90
2023-05-11T13:15:29.428Z,21.00
2023-05-11T13:17:59.014Z,21.63
2023-05-11T13:20:30.076Z,21.83
2023-05-11T13:23:06.515Z,23.00
2023-05-11T13:25:35.151Z,21.97
2023-05-11T13:28:03.254Z,21.57
2023-05-11T13:30:33.402Z,22.23
2023-05-11T13:35:49.885Z,23.07
2023-05-11T13:38:17.759Z,23.53
2023-05-11T13:40:45.697Z,21.70
2023-05-11T13:43:13.580Z,22.43
2023-05-11T13:45:41.702Z,23.10
2023-05-11T13:48:10.780Z,23.00
2023-05-11T13:50:38.904Z,25.20
2023-05-11T13:53:08.113Z,24.23
2023-05-11T13:55:38.028Z,21.00
2023-05-11T13:58:06.644Z,19.00
2023-05-11T14:00:35.040Z,17.80
2023-05-11T14:03:03.970Z,17.87
2023-05-11T14:05:32.001Z,18.43
2023-05-11T14:07:59.920Z,18.13
2023-05-11T14:10:29.124Z,16.90
2023-05-11T14:12:57.031Z,17.57
2023-05-11T14:15:24.918Z,17.03
2023-05-11T14:17:52.979Z,17.13
2023-05-11T14:20:20.932Z,15.63
2023-05-11T14:22:48.894Z,15.60
2023-05-11T14:25:17.146Z,14.80
2023-05-11T14:27:46.678Z,15.20
2023-05-11T14:30:15.189Z,16.07
2023-05-11T14:32:43.077Z,16.57
2023-05-11T14:35:11.204Z,15.90
2023-05-11T14:37:39.222Z,16.07
2023-05-11T14:40:08.260Z,14.93
2023-05-11T14:42:36.190Z,15.57
2023-05-11T14:45:06.632Z,14.77
2023-05-11T14:47:34.564Z,14.17
2023-05-11T14:50:02.636Z,13.63
2023-05-11T14:52:30.605Z,13.53
2023-05-11T14:54:58.513Z,11.73
2023-05-11T14:57:26.654Z,11.07
2023-05-11T15:00:00.191Z,10.27
2023-05-11T15:02:30.053Z,11.17
2023-05-11T15:04:58.058Z,11.03
2023-05-11T15:07:26.707Z,9.97
2023-05-11T15:09:54.830Z,10.47
2023-05-11T15:12:22.769Z,10.60
2023-05-11T15:14:50.878Z,9.83
2023-05-11T15:17:18.731Z,9.10
2023-05-11T15:19:47.895Z,9.90
2023-05-11T15:22:17.189Z,8.70
2023-05-11T15:24:45.065Z,8.73
2023-05-11T15:27:12.966Z,8.77
2023-05-11T15:29:40.865Z,8.77
2023-05-11T15:32:09.270Z,8.93
2023-05-11T15:34:44.540Z,10.17
2023-05-11T15:37:25.086Z,9.70
2023-05-11T15:39:53.009Z,9.83
2023-05-11T15:42:21.017Z,9.63
2023-05-11T15:44:49.020Z,9.47
2023-05-11T15:47:17.768Z,10.13
2023-05-11T15:49:45.711Z,9.67
2023-05-11T15:52:13.593Z,9.87
2023-05-11T15:54:42.837Z,9.60
2023-05-11T15:57:10.837Z,10.37
2023-05-11T15:59:38.931Z,10.10
2023-05-11T16:02:07.687Z,12.07
2023-05-11T16:04:35.822Z,12.20
2023-05-11T16:07:04.343Z,13.10
2023-05-11T16:09:32.247Z,13.13
2023-05-11T16:12:01.544Z,13.63
2023-05-11T16:14:29.445Z,14.63
2023-05-11T16:16:57.532Z,13.77
2023-05-11T16:19:25.701Z,13.03
2023-05-11T16:21:53.825Z,14.10
2023-05-11T16:24:21.694Z,13.40
2023-05-11T16:26:49.580Z,15.40
2023-05-11T16:32:05.834Z,16.00
2023-05-11T16:34:35.028Z,15.40
2023-05-11T16:37:03.003Z,17.83
2023-05-11T16:39:30.920Z,18.40
2023-05-11T16:41:58.866Z,17.60
2023-05-11T16:44:28.118Z,18.10
2023-05-11T16:46:56.503Z,18.23
2023-05-11T16:49:24.489Z,17.27
2023-05-11T16:51:52.699Z,16.77
2023-05-11T16:54:21.034Z,17.50
2023-05-11T16:56:48.951Z,17.33
2023-05-11T16:59:16.819Z,17.43
2023-05-11T17:01:46.173Z,17.67
2023-05-11T17:04:14.334Z,17.03
2023-05-11T17:06:42.299Z,17.27
2023-05-11T17:09:10.156Z,16.53
2023-05-11T17:11:38.433Z,16.73
2023-05-11T17:14:06.325Z,18.70
2023-05-11T17:16:34.463Z,18.00
2023-05-11T17:19:03.839Z,18.33
2023-05-11T17:21:32.356Z,18.93
2023-05-11T17:24:00.243Z,19.30
2023-05-11T17:26:39.258Z,18.97
2023-05-11T17:29:14.804Z,19.87
2023-05-11T17:31:42.915Z,20.07
2023-05-11T17:34:12.626Z,20.70
2023-05-11T17:36:40.655Z,21.63
2023-05-11T17:39:09.755Z,20.93
2023-05-11T17:41:37.892Z,20.63
2023-05-11T17:44:06.060Z,21.03
2023-05-11T17:46:34.461Z,20.03
2023-05-11T17:49:02.793Z,19.47
2023-05-11T17:51:32.796Z,19.60
2023-05-11T17:54:01.785Z,19.60
2023-05-11T17:56:29.738Z,17.40
2023-05-11T17:58:57.595Z,17.60
2023-05-11T18:01:27.320Z,16.23
2023-05-11T18:03:55.423Z,15.77
2023-05-11T18:06:23.408Z,15.97
2023-05-11T18:08:52.949Z,16.73
2023-05-11T18:11:21.183Z,15.07
2023-05-11T18:13:49.093Z,13.80
2023-05-11T18:16:18.493Z,14.33
2023-05-11T18:18:46.406Z,14.80
2023-05-11T18:21:14.317Z,13.07
2023-05-11T18:23:42.423Z,11.27
2023-05-11T18:26:13.974Z,11.30
2023-05-11T18:28:41.888Z,10.50
2023-05-11T18:31:09.931Z,10.90
2023-05-11T18:33:37.873Z,10.30
2023-05-11T18:36:06.499Z,10.27
2023-05-11T18:38:34.371Z,9.43
2023-05-11T18:41:05.091Z,9.80
2023-05-11T18:43:34.334Z,9.30
2023-05-11T18:46:02.211Z,8.77
2023-05-11T18:48:30.099Z,8.30
2023-05-11T18:50:58.075Z,8.03
2023-05-11T18:53:26.572Z,7.90
2023-05-11T18:55:54.622Z,8.03
2023-05-11T18:58:23.440Z,8.03
2023-05-11T19:00:52.928Z,8.20
2023-05-11T19:03:21.774Z,8.90
2023-05-11T19:05:50.152Z,8.37
2023-05-11T19:08:18.560Z,7.93
2023-05-11T19:11:07.389Z,8.97
2023-05-11T19:13:35.796Z,9.13
2023-05-11T19:16:05.842Z,9.03
2023-05-11T19:18:35.631Z,9.97
2023-05-11T19:21:05.015Z,9.90
2023-05-11T19:23:33.046Z,10.47
2023-05-11T19:26:00.959Z,10.43
2023-05-11T19:28:28.926Z,12.93
2023-05-11T19:31:05.620Z,11.00
2023-05-11T19:33:33.777Z,10.90
2023-05-11T19:36:01.922Z,9.93
2023-05-11T19:38:29.863Z,10.63
2023-05-11T19:40:57.834Z,10.10
2023-05-11T19:43:25.974Z,9.93
2023-05-11T19:45:54.011Z,10.80
2023-05-11T19:48:23.365Z,11.00
2023-05-11T19:50:51.249Z,10.00
2023-05-11T19:53:19.077Z,10.40
2023-05-11T19:55:48.259Z,11.57
2023-05-11T20:01:03.123Z,9.50
2023-05-11T20:03:32.504Z,11.30
2023-05-11T20:06:00.421Z,10.93
2023-05-11T20:08:28.648Z,9.93
2023-05-11T20:10:56.862Z,11.37
2023-05-11T20:13:24.749Z,10.80
2023-05-11T20:15:52.704Z,9.90
2023-05-11T20:18:20.637Z,11.03
2023-05-11T20:20:50.286Z,11.23
2023-05-11T20:23:39.207Z,10.43
2023-05-11T20:26:26.794Z,10.77
2023-05-11T20:28:55.394Z,10.17
2023-05-11T20:31:23.367Z,10.30
2023-05-11T20:36:23.338Z,10.43
2023-05-11T20:38:53.704Z,10.57
2023-05-11T20:41:21.925Z,11.73
2023-05-11T20:43:50.573Z,10.97
2023-05-11T20:46:18.545Z,10.93
2023-05-11T20:48:51.451Z,11.03
2023-05-11T20:51:23.020Z,11.50
2023-05-11T20:53:53.528Z,10.83
2023-05-11T20:56:21.454Z,11.77
2023-05-11T20:58:49.354Z,11.97
2023-05-11T21:01:17.378Z,12.43
2023-05-11T21:03:45.393Z,10.77
2023-05-11T21:06:13.332Z,11.73
2023-05-11T21:08:41.199Z,12.60
2023-05-11T21:11:10.687Z,12.17
2023-05-11T21:13:38.553Z,11.67
2023-05-11T21:16:08.084Z,11.83
2023-05-11T21:18:36.217Z,11.80
2023-05-11T21:21:05.396Z,12.97
2023-05-11T21:23:52.090Z,12.67
2023-05-11T21:26:21.408Z,12.77
2023-05-11T21:28:49.343Z,12.60
2023-05-11T21:31:17.439Z,13.07
2023-05-11T21:33:45.359Z,11.97
2023-05-11T21:36:13.309Z,13.20
2023-05-11T21:38:41.261Z,13.00
2023-05-11T21:41:09.200Z,11.53
2023-05-11T21:43:38.437Z,12.93
2023-05-11T21:46:06.469Z,12.97
2023-05-11T21:48:34.324Z,12.87
2023-05-11T21:51:02.238Z,12.77
2023-05-11T21:53:30.230Z,12.97
2023-05-11T21:55:58.207Z,13.80
2023-05-11T21:58:26.316Z,13.70
2023-05-11T22:00:56.927Z,13.00
2023-05-11T22:03:25.504Z,13.60
2023-05-11T22:05:53.537Z,13.67
2023-05-11T22:08:21.540Z,13.50
2023-05-11T22:10:50.369Z,12.40
2023-05-11T22:13:18.278Z,13.87
2023-05-11T22:15:46.181Z,13.27
2023-05-11T22:18:15.391Z,12.80
2023-05-11T22:20:43.296Z,13.97
2023-05-11T22:23:11.628Z,13.50
2023-05-11T22:25:39.542Z,14.10
2023-05-11T22:28:07.800Z,12.63
2023-05-11T22:30:35.670Z,12.97
2023-05-11T22:33:03.728Z,12.70
2023-05-11T22:35:33.113Z,13.57
2023-05-11T22:38:01.685Z,12.87
2023-05-11T22:40:29.641Z,13.97
2023-05-11T22:42:57.938Z,12.27
2023-05-11T22:45:26.026Z,13.70
2023-05-11T22:47:54.119Z,12.43
2023-05-11T22:50:22.260Z,13.13
2023-05-11T22:52:51.765Z,12.57
2023-05-11T22:55:19.782Z,13.80
2023-05-11T22:57:47.696Z,13.30
2023-05-11T23:00:16.090Z,12.67
2023-05-11T23:02:44.097Z,13.27
2023-05-11T23:05:12.176Z,15.37
2023-05-11T23:08:00.668Z,14.83
2023-05-11T23:10:29.053Z,13.13
2023-05-11T23:12:57.172Z,13.90
2023-05-11T23:15:25.028Z,14.10
2023-05-11T23:17:52.974Z,16.57
2023-05-11T23:20:21.181Z,15.93
2023-05-11T23:22:49.201Z,17.50
2023-05-11T23:25:18.552Z,15.90
2023-05-11T23:27:46.411Z,15.73
2023-05-11T23:30:14.765Z,15.23
2023-05-11T23:32:42.751Z,15.67
2023-05-11T23:35:10.958Z,15.20
2023-05-11T23:37:38.850Z,17.43
2023-05-11T23:40:09.197Z,17.13
2023-05-11T23:42:39.041Z,15.23
2023-05-11T23:45:08.612Z,16.37
2023-05-11T23:47:37.322Z,15.70
2023-05-11T23:50:24.548Z,15.17
2023-05-11T23:52:52.468Z,14.77
2023-05-11T23:55:20.548Z,15.77
2023-05-11T23:57:49.837Z,14.50
